createdAt,value
2018-03-16T00:02:26.656Z,14.80
2018-03-16T00:04:54.683Z,13.15
2018-03-16T00:07:22.674Z,14.75
2018-03-16T00:09:50.689Z,16.60
2018-03-16T00:12:18.709Z,18.60
2018-03-16T00:14:46.672Z,21.20
2018-03-16T00:17:14.681Z,23.08
2018-03-16T00:19:42.715Z,18.00
2018-03-16T00:22:14.733Z,20.40
2018-03-16T00:24:42.754Z,22.90
2018-03-16T00:27:10.759Z,20.33
2018-03-16T00:29:38.744Z,19.30
2018-03-16T00:32:06.722Z,24.23
2018-03-16T00:34:34.736Z,20.92
2018-03-16T00:37:02.773Z,24.30
2018-03-16T00:39:30.802Z,23.30
2018-03-16T00:41:58.768Z,20.90
2018-03-16T00:44:26.786Z,24.90
2018-03-16T00:46:54.829Z,21.23
2018-03-16T00:49:22.857Z,27.05
2018-03-16T00:51:50.885Z,23.33
2018-03-16T00:54:18.897Z,36.15
2018-03-16T00:56:46.885Z,25.70
2018-03-16T00:59:14.896Z,27.00
2018-03-16T01:01:42.924Z,28.65
2018-03-16T01:04:10.909Z,28.12
2018-03-16T01:06:38.929Z,29.67
2018-03-16T01:09:06.925Z,27.48
2018-03-16T01:11:34.953Z,30.73
2018-03-16T01:14:02.934Z,28.73
2018-03-16T01:16:30.965Z,28.33
2018-03-16T01:18:58.962Z,26.65
2018-03-16T01:21:26.915Z,28.48
2018-03-16T01:23:54.922Z,27.40
2018-03-16T01:26:22.900Z,32.35
2018-03-16T01:28:50.875Z,34.25
2018-03-16T01:31:18.893Z,27.35
2018-03-16T01:33:46.853Z,34.15
2018-03-16T01:36:14.844Z,32.70
2018-03-16T01:38:42.871Z,32.35
2018-03-16T01:41:10.857Z,31.87
2018-03-16T01:43:38.834Z,31.23
2018-03-16T01:46:06.885Z,34.58
2018-03-16T01:48:34.881Z,32.50
2018-03-16T01:51:02.866Z,32.10
2018-03-16T01:53:30.902Z,30.48
2018-03-16T01:55:58.865Z,30.73
2018-03-16T01:58:26.862Z,33.05
2018-03-16T02:00:54.881Z,30.55
2018-03-16T02:03:22.924Z,29.95
2018-03-16T02:05:50.937Z,33.65
2018-03-16T02:08:20.079Z,30.92
2018-03-16T02:10:48.057Z,33.40
2018-03-16T02:13:16.009Z,38.22
2018-03-16T02:15:44.006Z,32.20
2018-03-16T02:18:11.993Z,35.05
2018-03-16T02:20:39.961Z,31.42
2018-03-16T02:23:07.997Z,32.33
2018-03-16T02:25:35.978Z,35.13
2018-03-16T02:28:04.005Z,38.35
2018-03-16T02:30:32.022Z,38.40
2018-03-16T02:32:59.980Z,36.75
2018-03-16T02:35:27.978Z,36.03
2018-03-16T02:37:55.990Z,37.70
2018-03-16T02:40:24.007Z,33.75
2018-03-16T02:42:52.013Z,39.53
2018-03-16T02:45:20.039Z,37.08
2018-03-16T02:47:48.048Z,32.85
2018-03-16T02:50:16.072Z,38.40
2018-03-16T02:52:45.169Z,34.85
2018-03-16T02:55:13.181Z,39.10
2018-03-16T02:57:41.165Z,37.17
2018-03-16T03:00:09.204Z,39.08
2018-03-16T03:02:37.187Z,40.05
2018-03-16T03:05:05.190Z,43.05
2018-03-16T03:07:33.212Z,39.97
2018-03-16T03:10:01.231Z,37.08
2018-03-16T03:12:29.197Z,41.83
2018-03-16T03:14:57.205Z,36.50
2018-03-16T03:17:25.192Z,38.63
2018-03-16T03:19:53.233Z,36.40
2018-03-16T03:22:21.250Z,39.05
2018-03-16T03:24:49.260Z,43.45
2018-03-16T03:27:17.253Z,45.10
2018-03-16T03:29:45.265Z,40.10
2018-03-16T03:32:13.274Z,42.10
2018-03-16T03:34:41.256Z,40.50
2018-03-16T03:37:09.293Z,42.85
2018-03-16T03:39:37.292Z,46.25
2018-03-16T03:42:05.358Z,40.22
2018-03-16T03:44:33.381Z,39.30
2018-03-16T03:47:01.389Z,47.08
2018-03-16T03:49:29.396Z,46.85
2018-03-16T03:51:57.419Z,51.17
2018-03-16T03:54:25.388Z,38.90
2018-03-16T03:56:53.566Z,42.65
2018-03-16T03:59:21.621Z,42.00
2018-03-16T04:01:49.629Z,46.25
2018-03-16T04:04:17.638Z,47.03
2018-03-16T04:06:45.658Z,55.63
2018-03-16T04:09:13.628Z,41.40
2018-03-16T04:11:41.608Z,48.30
2018-03-16T04:14:09.600Z,42.65
2018-03-16T04:16:37.580Z,40.00
2018-03-16T04:19:05.558Z,43.97
2018-03-16T04:21:33.603Z,40.17
2018-03-16T04:24:01.590Z,38.40
2018-03-16T04:26:29.596Z,37.25
2018-03-16T04:28:57.592Z,39.95
2018-03-16T04:31:25.592Z,34.90
2018-03-16T04:33:53.637Z,41.28
2018-03-16T04:36:21.648Z,45.05
2018-03-16T04:38:49.645Z,35.50
2018-03-16T04:41:17.629Z,43.38
2018-03-16T04:43:45.645Z,45.47
2018-03-16T04:46:13.600Z,40.08
2018-03-16T04:48:41.568Z,45.08
2018-03-16T04:51:09.583Z,36.95
2018-03-16T04:53:37.601Z,38.70
2018-03-16T04:56:05.608Z,40.30
2018-03-16T04:58:33.601Z,42.38
2018-03-16T05:01:01.608Z,38.65
2018-03-16T05:03:29.612Z,42.20
2018-03-16T05:05:57.609Z,40.92
2018-03-16T05:08:25.607Z,46.58
2018-03-16T05:10:53.639Z,40.20
2018-03-16T05:13:21.640Z,40.47
2018-03-16T05:15:49.625Z,56.83
2018-03-16T05:18:17.613Z,43.92
2018-03-16T05:20:45.648Z,52.70
2018-03-16T05:23:13.618Z,42.33
2018-03-16T05:25:41.617Z,41.47
2018-03-16T05:28:09.629Z,39.88
2018-03-16T05:30:37.598Z,42.10
2018-03-16T05:33:05.627Z,45.12
2018-03-16T05:35:33.639Z,43.50
2018-03-16T05:38:01.625Z,42.42
2018-03-16T05:40:29.629Z,43.28
2018-03-16T05:42:57.649Z,39.50
2018-03-16T05:45:25.663Z,45.58
2018-03-16T05:47:53.686Z,40.10
2018-03-16T05:50:21.717Z,40.47
2018-03-16T05:52:49.730Z,49.75
2018-03-16T05:55:17.716Z,36.95
2018-03-16T05:57:45.736Z,40.60
2018-03-16T06:00:13.655Z,34.17
2018-03-16T06:02:41.643Z,35.42
2018-03-16T06:05:09.721Z,32.05
2018-03-16T06:07:37.701Z,35.75
2018-03-16T06:10:05.750Z,38.83
2018-03-16T06:12:33.766Z,34.92
2018-03-16T06:15:01.747Z,35.38
2018-03-16T06:17:29.786Z,30.10
2018-03-16T06:19:57.790Z,29.90
2018-03-16T06:22:25.772Z,27.95
2018-03-16T06:24:53.884Z,33.78
2018-03-16T06:27:21.950Z,31.08
2018-03-16T06:29:49.968Z,31.95
2018-03-16T06:32:17.962Z,31.33
2018-03-16T06:34:45.965Z,39.17
2018-03-16T06:37:14.033Z,24.15
2018-03-16T06:39:42.002Z,27.33
2018-03-16T06:42:10.069Z,23.40
2018-03-16T06:44:38.193Z,25.15
2018-03-16T06:47:06.117Z,27.55
2018-03-16T06:49:34.109Z,30.77
2018-03-16T06:52:02.126Z,25.70
2018-03-16T06:54:30.186Z,24.77
2018-03-16T06:56:58.173Z,24.77
2018-03-16T06:59:28.197Z,28.27
2018-03-16T07:01:56.180Z,23.67
2018-03-16T07:04:24.200Z,24.12
2018-03-16T07:06:52.182Z,25.92
2018-03-16T07:09:20.184Z,20.23
2018-03-16T07:11:48.211Z,23.65
2018-03-16T07:14:16.204Z,20.27
2018-03-16T07:16:44.253Z,19.48
2018-03-16T07:19:12.276Z,23.60
2018-03-16T07:21:40.262Z,16.25
2018-03-16T07:24:08.325Z,18.40
2018-03-16T07:26:36.338Z,16.98
2018-03-16T07:29:04.289Z,15.68
2018-03-16T07:31:32.257Z,16.65
2018-03-16T07:34:00.283Z,16.73
2018-03-16T07:36:28.340Z,16.77
2018-03-16T07:38:56.329Z,11.70
2018-03-16T07:41:24.372Z,16.70
2018-03-16T07:43:52.351Z,14.70
2018-03-16T07:46:20.345Z,15.80
2018-03-16T07:48:48.365Z,18.92
2018-03-16T07:51:16.424Z,16.48
2018-03-16T07:53:44.423Z,16.90
2018-03-16T07:56:12.413Z,17.12
2018-03-16T07:58:40.425Z,14.10
2018-03-16T08:01:08.424Z,15.90
2018-03-16T08:03:36.422Z,15.63
2018-03-16T08:06:04.418Z,13.00
2018-03-16T08:08:32.452Z,13.10
2018-03-16T08:11:00.520Z,11.60
2018-03-16T08:13:28.530Z,9.82
2018-03-16T08:15:56.603Z,8.93
2018-03-16T08:18:24.612Z,11.23
2018-03-16T08:20:52.603Z,11.63
2018-03-16T08:23:20.617Z,11.50
2018-03-16T08:25:48.648Z,12.80
2018-03-16T08:28:16.661Z,14.50
2018-03-16T08:30:44.680Z,11.15
2018-03-16T08:33:12.708Z,10.75
2018-03-16T08:35:40.691Z,10.93
2018-03-16T08:38:08.678Z,13.52
2018-03-16T08:40:36.657Z,16.10
2018-03-16T08:43:04.705Z,14.32
2018-03-16T08:45:32.741Z,11.20
2018-03-16T08:48:00.811Z,14.35
2018-03-16T08:50:28.858Z,13.07
2018-03-16T08:52:56.886Z,14.30
2018-03-16T08:55:24.889Z,13.50
2018-03-16T08:57:53.941Z,12.37
2018-03-16T09:00:21.951Z,12.30
2018-03-16T09:02:50.049Z,12.52
2018-03-16T09:05:18.051Z,11.75
2018-03-16T09:07:46.055Z,13.02
2018-03-16T09:10:14.061Z,13.70
2018-03-16T09:12:42.090Z,12.20
2018-03-16T09:15:10.107Z,15.27
2018-03-16T09:17:38.123Z,11.32
2018-03-16T09:20:06.145Z,16.17
2018-03-16T09:22:34.205Z,15.05
2018-03-16T09:25:02.205Z,14.63
2018-03-16T09:27:31.237Z,15.67
2018-03-16T09:29:59.301Z,13.40
2018-03-16T09:32:27.329Z,15.97
2018-03-16T09:34:55.354Z,13.93
2018-03-16T09:37:23.361Z,13.67
2018-03-16T09:39:51.393Z,13.67
2018-03-16T09:42:19.397Z,15.37
2018-03-16T09:44:47.369Z,16.23
2018-03-16T09:47:15.429Z,13.97
2018-03-16T09:49:43.502Z,14.23
2018-03-16T09:52:11.514Z,13.50
2018-03-16T09:54:45.705Z,17.23
2018-03-16T09:57:13.716Z,12.67
2018-03-16T09:59:41.729Z,14.27
2018-03-16T10:02:09.895Z,19.30
2018-03-16T10:04:37.889Z,13.17
2018-03-16T10:07:05.911Z,11.47
2018-03-16T10:09:33.893Z,16.00
2018-03-16T10:12:02.666Z,13.63
2018-03-16T10:14:35.982Z,15.40
2018-03-16T10:17:05.017Z,14.73
2018-03-16T10:19:32.993Z,12.17
2018-03-16T10:22:01.041Z,11.80
2018-03-16T10:24:29.073Z,12.37
2018-03-16T10:26:57.052Z,11.20
2018-03-16T10:29:25.072Z,11.67
2018-03-16T10:31:53.113Z,8.90
2018-03-16T10:34:22.233Z,11.60
2018-03-16T10:36:50.237Z,8.67
2018-03-16T10:39:18.279Z,9.83
2018-03-16T10:41:46.291Z,12.00
2018-03-16T10:44:14.581Z,10.73
2018-03-16T10:46:42.584Z,12.77
2018-03-16T10:49:10.618Z,11.07
2018-03-16T10:51:38.665Z,11.60
2018-03-16T10:54:06.681Z,9.50
2018-03-16T10:56:34.785Z,12.47
2018-03-16T10:59:02.824Z,13.83
2018-03-16T11:01:36.991Z,9.70
2018-03-16T11:04:19.917Z,12.27
2018-03-16T11:07:06.069Z,10.67
2018-03-16T11:09:34.100Z,10.00
2018-03-16T11:12:02.133Z,10.93
2018-03-16T11:14:30.126Z,7.23
2018-03-16T11:16:58.111Z,10.47
2018-03-16T11:19:26.123Z,9.27
2018-03-16T11:21:54.129Z,7.70
2018-03-16T11:24:22.121Z,8.90
2018-03-16T11:26:50.149Z,8.87
2018-03-16T11:29:18.160Z,10.70
2018-03-16T11:31:46.229Z,8.40
2018-03-16T11:34:14.261Z,6.60
2018-03-16T11:36:42.261Z,8.63
2018-03-16T11:39:10.293Z,8.80
2018-03-16T11:41:38.269Z,7.97
2018-03-16T11:44:06.309Z,7.03
2018-03-16T11:46:34.356Z,7.03
2018-03-16T11:49:02.376Z,7.30
2018-03-16T11:51:30.337Z,5.67
2018-03-16T11:53:58.348Z,6.90
2018-03-16T11:56:26.389Z,5.10
2018-03-16T11:58:54.416Z,7.30
2018-03-16T12:01:22.458Z,5.27
2018-03-16T12:03:50.434Z,4.87
2018-03-16T12:06:18.415Z,12.13
2018-03-16T12:08:46.455Z,4.63
2018-03-16T12:11:14.543Z,4.90
2018-03-16T12:13:42.513Z,3.47
2018-03-16T12:16:10.501Z,4.13
2018-03-16T12:18:38.643Z,3.73
2018-03-16T12:21:06.673Z,3.63
2018-03-16T12:23:34.728Z,5.07
2018-03-16T12:26:02.709Z,4.87
2018-03-16T12:28:49.341Z,4.50
2018-03-16T12:30:58.759Z,4.50
2018-03-16T12:33:26.717Z,3.20
2018-03-16T12:35:54.705Z,5.13
2018-03-16T12:38:22.731Z,4.87
2018-03-16T12:40:50.836Z,3.40
2018-03-16T12:43:18.858Z,6.40
2018-03-16T12:45:46.868Z,2.73
2018-03-16T12:48:14.881Z,4.80
2018-03-16T12:50:42.893Z,2.90
2018-03-16T12:53:10.913Z,2.00
2018-03-16T12:55:38.925Z,2.67
2018-03-16T12:58:07.029Z,1.80
2018-03-16T13:00:35.160Z,1.27
2018-03-16T13:03:03.167Z,1.50
2018-03-16T13:05:31.180Z,2.00
2018-03-16T13:07:59.273Z,3.70
2018-03-16T13:10:27.301Z,2.57
2018-03-16T13:12:55.309Z,3.40
2018-03-16T13:15:23.319Z,2.30
2018-03-16T13:17:51.345Z,2.43
2018-03-16T13:20:19.334Z,2.13
2018-03-16T13:22:47.344Z,2.23
2018-03-16T13:25:15.340Z,3.40
2018-03-16T13:27:43.331Z,2.33
2018-03-16T13:30:11.384Z,2.20
2018-03-16T13:32:39.363Z,3.03
2018-03-16T13:35:07.341Z,2.30
2018-03-16T13:37:35.361Z,2.47
2018-03-16T13:40:03.409Z,2.37
2018-03-16T13:42:31.425Z,2.30
2018-03-16T13:44:59.442Z,3.07
2018-03-16T13:47:27.462Z,3.00
2018-03-16T13:49:55.464Z,2.80
2018-03-16T13:52:23.465Z,3.17
2018-03-16T13:54:51.488Z,3.20
2018-03-16T13:57:19.463Z,2.57
2018-03-16T13:59:47.460Z,3.13
2018-03-16T14:02:15.477Z,6.87
2018-03-16T14:04:43.461Z,2.23
2018-03-16T14:07:11.527Z,2.83
2018-03-16T14:09:39.573Z,2.03
2018-03-16T14:12:07.568Z,3.10
2018-03-16T14:14:35.601Z,3.10
2018-03-16T14:17:03.605Z,3.83
2018-03-16T14:19:31.602Z,3.33
2018-03-16T14:21:59.657Z,3.57
2018-03-16T14:24:27.685Z,2.60
2018-03-16T14:26:55.753Z,3.80
2018-03-16T14:29:23.761Z,3.30
2018-03-16T14:31:51.889Z,5.53
2018-03-16T14:34:20.028Z,6.30
2018-03-16T14:36:48.037Z,3.70
2018-03-16T14:39:16.046Z,2.90
2018-03-16T14:41:44.074Z,2.97
2018-03-16T14:44:12.177Z,3.90
2018-03-16T14:46:40.206Z,3.40
2018-03-16T14:49:08.245Z,2.73
2018-03-16T14:51:36.247Z,4.20
2018-03-16T14:54:04.243Z,3.80
2018-03-16T14:56:32.219Z,4.10
2018-03-16T14:59:00.265Z,2.50
2018-03-16T15:01:28.301Z,3.33
2018-03-16T15:03:56.298Z,2.73
2018-03-16T15:06:24.301Z,2.90
2018-03-16T15:08:52.309Z,2.43
2018-03-16T15:11:20.285Z,3.37
2018-03-16T15:13:48.305Z,3.10
2018-03-16T15:16:16.321Z,4.37
2018-03-16T15:18:44.646Z,2.80
2018-03-16T15:21:12.740Z,2.30
2018-03-16T15:23:41.790Z,2.47
2018-03-16T15:26:09.761Z,0.80
2018-03-16T15:28:37.773Z,2.20
2018-03-16T15:31:05.811Z,0.70
2018-03-16T15:33:33.794Z,0.60
2018-03-16T15:36:01.785Z,1.47
2018-03-16T15:38:29.801Z,0.50
2018-03-16T15:40:57.801Z,3.17
2018-03-16T15:43:25.834Z,1.03
2018-03-16T15:45:53.841Z,3.50
2018-03-16T15:48:21.833Z,1.60
2018-03-16T15:50:51.001Z,1.03
2018-03-16T15:53:19.006Z,1.23
2018-03-16T15:55:47.065Z,1.17
2018-03-16T15:58:15.085Z,2.23
2018-03-16T16:00:43.132Z,1.50
2018-03-16T16:03:11.123Z,2.97
2018-03-16T16:05:39.219Z,1.53
2018-03-16T16:08:07.213Z,1.30
2018-03-16T16:10:35.287Z,2.10
2018-03-16T16:13:03.346Z,2.00
2018-03-16T16:15:31.439Z,1.20
2018-03-16T16:17:59.441Z,1.80
2018-03-16T16:20:27.482Z,1.40
2018-03-16T16:22:55.453Z,2.70
2018-03-16T16:25:23.468Z,2.60
2018-03-16T16:27:51.490Z,2.08
2018-03-16T16:30:19.459Z,2.93
2018-03-16T16:32:47.491Z,2.00
2018-03-16T16:35:15.513Z,3.20
2018-03-16T16:37:43.531Z,4.77
2018-03-16T16:40:11.560Z,1.30
2018-03-16T16:42:39.561Z,1.23
2018-03-16T16:45:07.585Z,2.08
2018-03-16T16:47:36.534Z,0.80
2018-03-16T16:50:05.654Z,1.20
2018-03-16T16:52:33.639Z,1.80
2018-03-16T16:55:01.702Z,1.60
2018-03-16T16:57:29.654Z,1.62
2018-03-16T16:59:57.706Z,1.30
2018-03-16T17:02:25.725Z,2.63
2018-03-16T17:04:53.757Z,11.35
2018-03-16T17:07:21.794Z,13.53
2018-03-16T17:09:50.753Z,13.50
2018-03-16T17:12:18.814Z,16.50
2018-03-16T17:14:46.857Z,22.73
2018-03-16T17:17:15.898Z,12.63
2018-03-16T17:19:43.958Z,15.60
2018-03-16T17:22:11.958Z,16.95
2018-03-16T17:24:39.960Z,20.83
2018-03-16T17:27:07.991Z,20.52
2018-03-16T17:29:35.996Z,13.63
2018-03-16T17:32:04.030Z,16.77
2018-03-16T17:34:32.033Z,13.50
2018-03-16T17:37:00.061Z,17.60
2018-03-16T17:39:28.096Z,18.90
2018-03-16T17:41:56.108Z,16.27
2018-03-16T17:44:24.137Z,18.23
2018-03-16T17:46:52.501Z,20.35
2018-03-16T17:49:20.601Z,21.48
2018-03-16T17:51:49.678Z,18.83
2018-03-16T17:54:17.660Z,21.85
2018-03-16T17:56:48.099Z,18.20
2018-03-16T17:59:16.197Z,24.48
2018-03-16T18:01:44.409Z,17.05
2018-03-16T18:04:12.541Z,28.20
2018-03-16T18:06:40.564Z,28.85
2018-03-16T18:09:12.822Z,21.00
2018-03-16T18:11:41.450Z,25.12
2018-03-16T18:14:09.550Z,21.92
2018-03-16T18:16:37.533Z,20.05
2018-03-16T18:19:05.586Z,25.70
2018-03-16T18:21:33.590Z,29.37
2018-03-16T18:24:01.629Z,18.70
2018-03-16T18:26:29.621Z,19.02
2018-03-16T18:28:58.073Z,14.75
2018-03-16T18:31:26.125Z,19.17
2018-03-16T18:33:54.174Z,14.70
2018-03-16T18:36:22.181Z,17.17
2018-03-16T18:38:50.184Z,15.50
2018-03-16T18:41:18.198Z,18.15
2018-03-16T18:43:46.207Z,16.02
2018-03-16T18:46:14.213Z,15.02
2018-03-16T18:48:42.200Z,12.88
2018-03-16T18:51:10.269Z,13.48
2018-03-16T18:53:38.313Z,12.77
2018-03-16T18:56:06.361Z,12.13
2018-03-16T18:58:34.366Z,11.40
2018-03-16T19:01:02.442Z,12.15
2018-03-16T19:03:30.472Z,12.50
2018-03-16T19:05:58.530Z,12.20
2018-03-16T19:08:26.606Z,11.15
2018-03-16T19:10:54.614Z,13.50
2018-03-16T19:13:22.617Z,13.70
2018-03-16T19:15:50.633Z,11.90
2018-03-16T19:18:18.694Z,13.62
2018-03-16T19:20:46.793Z,13.82
2018-03-16T19:23:14.830Z,13.15
2018-03-16T19:25:42.814Z,12.50
2018-03-16T19:28:10.809Z,12.50
2018-03-16T19:30:39.840Z,12.77
2018-03-16T19:33:07.881Z,10.60
2018-03-16T19:35:35.948Z,12.20
2018-03-16T19:38:03.989Z,9.57
2018-03-16T19:40:32.013Z,8.27
2018-03-16T19:43:00.711Z,10.13
2018-03-16T19:45:29.129Z,11.18
2018-03-16T19:47:57.453Z,11.68
2018-03-16T19:50:25.838Z,11.05
2018-03-16T19:52:53.953Z,8.43
2018-03-16T19:55:22.557Z,11.10
2018-03-16T19:57:50.714Z,7.28
2018-03-16T20:00:18.805Z,7.50
2018-03-16T20:02:47.805Z,8.15
2018-03-16T20:05:15.761Z,7.18
2018-03-16T20:07:43.788Z,8.35
2018-03-16T20:10:11.865Z,7.12
2018-03-16T20:12:39.893Z,7.57
2018-03-16T20:15:07.899Z,8.15
2018-03-16T20:17:35.928Z,8.65
2018-03-16T20:20:04.013Z,8.40
2018-03-16T20:22:31.990Z,8.30
2018-03-16T20:24:59.998Z,8.43
2018-03-16T20:27:28.071Z,9.57
2018-03-16T20:29:56.066Z,9.85
2018-03-16T20:32:24.060Z,8.82
2018-03-16T20:34:52.031Z,8.60
2018-03-16T20:37:20.030Z,12.43
2018-03-16T20:39:48.045Z,10.95
2018-03-16T20:42:16.106Z,11.50
2018-03-16T20:44:44.085Z,9.93
2018-03-16T20:47:12.103Z,10.43
2018-03-16T20:49:40.085Z,12.48
2018-03-16T20:52:08.079Z,15.52
2018-03-16T20:54:36.086Z,9.52
2018-03-16T20:57:04.101Z,7.57
2018-03-16T20:59:32.142Z,9.88
2018-03-16T21:02:00.137Z,7.60
2018-03-16T21:04:28.131Z,7.37
2018-03-16T21:06:56.101Z,8.75
2018-03-16T21:09:24.115Z,7.32
2018-03-16T21:11:52.203Z,17.52
2018-03-16T21:14:20.277Z,9.18
2018-03-16T21:16:48.277Z,7.37
2018-03-16T21:19:16.861Z,9.45
2018-03-16T21:21:44.881Z,8.48
2018-03-16T21:24:12.983Z,7.15
2018-03-16T21:26:40.999Z,8.27
2018-03-16T21:29:09.045Z,6.57
2018-03-16T21:31:37.037Z,7.72
2018-03-16T21:34:05.044Z,6.70
2018-03-16T21:36:33.053Z,7.10
2018-03-16T21:39:01.077Z,9.13
2018-03-16T21:41:31.113Z,8.15
2018-03-16T21:43:59.105Z,9.80
2018-03-16T21:46:27.064Z,10.32
2018-03-16T21:48:55.077Z,12.50
2018-03-16T21:51:23.125Z,11.68
2018-03-16T21:53:51.121Z,9.23
2018-03-16T21:56:19.097Z,11.23
2018-03-16T21:58:47.073Z,9.80
2018-03-16T22:01:15.069Z,10.75
2018-03-16T22:03:43.073Z,10.38
2018-03-16T22:06:11.075Z,11.68
2018-03-16T22:08:39.080Z,10.68
2018-03-16T22:11:07.106Z,11.35
2018-03-16T22:13:50.018Z,12.65
2018-03-16T22:16:18.080Z,10.02
2018-03-16T22:18:46.094Z,11.25
2018-03-16T22:21:14.081Z,12.65
2018-03-16T22:23:42.117Z,10.93
2018-03-16T22:26:10.069Z,10.02
2018-03-16T22:28:38.083Z,11.30
2018-03-16T22:31:06.083Z,10.45
2018-03-16T22:33:35.333Z,10.32
2018-03-16T22:36:03.348Z,11.93
2018-03-16T22:38:31.358Z,11.55
2018-03-16T22:40:59.465Z,12.00
2018-03-16T22:43:27.520Z,9.88
2018-03-16T22:45:55.506Z,9.73
2018-03-16T22:48:23.469Z,11.10
2018-03-16T22:50:51.471Z,13.18
2018-03-16T22:53:19.453Z,12.77
2018-03-16T22:55:47.445Z,12.10
2018-03-16T22:58:15.530Z,14.80
2018-03-16T23:00:43.529Z,17.35
2018-03-16T23:03:11.529Z,17.12
2018-03-16T23:05:39.541Z,16.77
2018-03-16T23:08:07.507Z,13.32
2018-03-16T23:10:35.504Z,12.32
2018-03-16T23:13:03.492Z,15.50
2018-03-16T23:15:31.497Z,16.37
2018-03-16T23:17:59.521Z,14.52
2018-03-16T23:20:27.513Z,18.52
2018-03-16T23:22:55.509Z,17.48
2018-03-16T23:25:23.509Z,15.73
2018-03-16T23:27:51.495Z,15.75
2018-03-16T23:30:19.583Z,14.90
2018-03-16T23:32:47.596Z,17.05
2018-03-16T23:35:15.609Z,14.60
2018-03-16T23:37:43.604Z,15.48
2018-03-16T23:40:11.614Z,18.98
2018-03-16T23:42:39.590Z,16.65
2018-03-16T23:45:07.563Z,16.00
2018-03-16T23:47:36.432Z,16.87
2018-03-16T23:50:04.513Z,18.05
2018-03-16T23:52:32.536Z,17.10
2018-03-16T23:55:00.493Z,15.48
2018-03-16T23:57:28.511Z,17.87
2018-03-16T23:59:56.483Z,16.15
